Terminal Aerodrome Forecast
Issued by NWS Atlanta, GA

Home | Current Version | Previous Version | Text Only | Print | Product List | Glossary On
Versions: 1 2 3 4 5 6 7 8 9 10 11 12 13
255
FTUS42 KFFC 241720
TAFMCN
TAF
KMCN 241720Z 2418/2518 33007KT P6SM VCSH BKN012 OVC025
     FM242300 33009KT P6SM SCT035
     FM250100 32005KT P6SM BKN025
     FM250600 30004KT P6SM BKN012
     FM250800 30004KT P6SM BKN008
     FM251400 30004KT P6SM SCT008 BKN012
     FM251600 30005KT P6SM SCT035=

USA.gov is the U.S. government's official web portal to all federal, state and local government web resources and services.